sensor_id;sensor_type;location;lat;lon;timestamp;P1;durP1;ratioP1;P2;durP2;ratioP2
56373;SDS011;58212;47.034;7.376;2022-07-29T00:01:56;4.35;;;3.95;;
56373;SDS011;58212;47.034;7.376;2022-07-29T00:04:23;4.15;;;3.85;;
56373;SDS011;58212;47.034;7.376;2022-07-29T00:06:50;4.57;;;4.18;;
56373;SDS011;58212;47.034;7.376;2022-07-29T00:09:17;5.00;;;4.28;;
56373;SDS011;58212;47.034;7.376;2022-07-29T00:11:44;3.95;;;3.65;;
56373;SDS011;58212;47.034;7.376;2022-07-29T00:14:11;3.97;;;3.60;;
56373;SDS011;58212;47.034;7.376;2022-07-29T00:16:40;4.47;;;4.07;;
56373;SDS011;58212;47.034;7.376;2022-07-29T00:19:07;4.57;;;4.07;;
56373;SDS011;58212;47.034;7.376;2022-07-29T00:21:34;4.10;;;3.80;;
56373;SDS011;58212;47.034;7.376;2022-07-29T00:24:03;4.63;;;4.10;;
56373;SDS011;58212;47.034;7.376;2022-07-29T00:26:31;4.55;;;4.20;;
56373;SDS011;58212;47.034;7.376;2022-07-29T00:28:58;4.30;;;3.90;;
56373;SDS011;58212;47.034;7.376;2022-07-29T00:31:25;4.30;;;3.88;;
56373;SDS011;58212;47.034;7.376;2022-07-29T00:33:54;4.50;;;4.10;;
56373;SDS011;58212;47.034;7.376;2022-07-29T00:36:22;4.57;;;4.18;;
56373;SDS011;58212;47.034;7.376;2022-07-29T00:38:48;6.25;;;3.92;;
56373;SDS011;58212;47.034;7.376;2022-07-29T00:41:16;5.70;;;4.28;;
56373;SDS011;58212;47.034;7.376;2022-07-29T00:43:44;4.32;;;3.92;;
56373;SDS011;58212;47.034;7.376;2022-07-29T00:46:14;3.90;;;3.60;;
56373;SDS011;58212;47.034;7.376;2022-07-29T00:48:41;4.47;;;4.07;;
56373;SDS011;58212;47.034;7.376;2022-07-29T00:51:09;6.40;;;4.18;;
56373;SDS011;58212;47.034;7.376;2022-07-29T00:53:37;4.45;;;3.97;;
56373;SDS011;58212;47.034;7.376;2022-07-29T00:56:04;4.03;;;3.63;;
56373;SDS011;58212;47.034;7.376;2022-07-29T00:58:31;3.72;;;3.42;;
56373;SDS011;58212;47.034;7.376;2022-07-29T01:00:58;4.13;;;3.80;;
56373;SDS011;58212;47.034;7.376;2022-07-29T01:03:26;4.43;;;4.00;;
56373;SDS011;58212;47.034;7.376;2022-07-29T01:05:53;4.50;;;3.80;;
56373;SDS011;58212;47.034;7.376;2022-07-29T01:08:22;4.30;;;3.83;;
56373;SDS011;58212;47.034;7.376;2022-07-29T01:10:50;4.00;;;3.60;;
56373;SDS011;58212;47.034;7.376;2022-07-29T01:13:20;4.40;;;4.00;;
56373;SDS011;58212;47.034;7.376;2022-07-29T01:15:49;4.50;;;3.75;;
56373;SDS011;58212;47.034;7.376;2022-07-29T01:18:27;3.92;;;3.63;;
56373;SDS011;58212;47.034;7.376;2022-07-29T01:21:21;4.20;;;3.78;;
56373;SDS011;58212;47.034;7.376;2022-07-29T01:24:14;3.65;;;3.35;;
56373;SDS011;58212;47.034;7.376;2022-07-29T01:26:56;4.05;;;3.33;;
56373;SDS011;58212;47.034;7.376;2022-07-29T01:29:28;3.20;;;3.00;;
56373;SDS011;58212;47.034;7.376;2022-07-29T01:31:59;3.78;;;3.47;;
56373;SDS011;58212;47.034;7.376;2022-07-29T01:34:31;4.20;;;3.40;;
56373;SDS011;58212;47.034;7.376;2022-07-29T01:37:08;4.03;;;3.60;;
56373;SDS011;58212;47.034;7.376;2022-07-29T01:39:41;3.65;;;3.35;;
56373;SDS011;58212;47.034;7.376;2022-07-29T01:42:11;3.70;;;3.33;;
56373;SDS011;58212;47.034;7.376;2022-07-29T01:44:45;3.70;;;3.40;;
56373;SDS011;58212;47.034;7.376;2022-07-29T01:47:17;3.58;;;3.28;;
56373;SDS011;58212;47.034;7.376;2022-07-29T01:49:49;3.72;;;3.42;;
56373;SDS011;58212;47.034;7.376;2022-07-29T01:52:19;3.72;;;3.20;;
56373;SDS011;58212;47.034;7.376;2022-07-29T01:54:53;4.72;;;3.38;;
56373;SDS011;58212;47.034;7.376;2022-07-29T01:57:25;4.32;;;3.38;;
56373;SDS011;58212;47.034;7.376;2022-07-29T01:59:55;3.92;;;3.63;;
56373;SDS011;58212;47.034;7.376;2022-07-29T02:02:27;3.83;;;3.50;;
56373;SDS011;58212;47.034;7.376;2022-07-29T02:04:56;3.20;;;3.00;;
56373;SDS011;58212;47.034;7.376;2022-07-29T02:07:25;3.50;;;3.20;;
56373;SDS011;58212;47.034;7.376;2022-07-29T02:09:55;4.00;;;3.60;;
56373;SDS011;58212;47.034;7.376;2022-07-29T02:12:24;3.85;;;3.40;;
56373;SDS011;58212;47.034;7.376;2022-07-29T02:14:53;4.20;;;3.90;;
56373;SDS011;58212;47.034;7.376;2022-07-29T02:17:26;4.18;;;3.70;;
56373;SDS011;58212;47.034;7.376;2022-07-29T02:19:58;3.95;;;3.60;;
56373;SDS011;58212;47.034;7.376;2022-07-29T02:22:28;4.32;;;3.35;;
56373;SDS011;58212;47.034;7.376;2022-07-29T02:24:57;4.95;;;4.00;;
56373;SDS011;58212;47.034;7.376;2022-07-29T02:27:24;3.80;;;3.50;;
56373;SDS011;58212;47.034;7.376;2022-07-29T02:29:53;7.68;;;4.57;;
56373;SDS011;58212;47.034;7.376;2022-07-29T02:32:24;6.18;;;3.70;;
56373;SDS011;58212;47.034;7.376;2022-07-29T02:34:53;5.68;;;4.57;;
56373;SDS011;58212;47.034;7.376;2022-07-29T02:37:22;5.47;;;3.85;;
56373;SDS011;58212;47.034;7.376;2022-07-29T02:39:50;4.32;;;3.92;;
56373;SDS011;58212;47.034;7.376;2022-07-29T02:42:21;4.25;;;3.85;;
56373;SDS011;58212;47.034;7.376;2022-07-29T02:44:49;4.32;;;3.88;;
56373;SDS011;58212;47.034;7.376;2022-07-29T02:47:20;4.20;;;3.80;;
56373;SDS011;58212;47.034;7.376;2022-07-29T02:49:52;4.50;;;3.90;;
56373;SDS011;58212;47.034;7.376;2022-07-29T02:52:24;4.22;;;3.83;;
56373;SDS011;58212;47.034;7.376;2022-07-29T02:54:55;4.40;;;4.00;;
56373;SDS011;58212;47.034;7.376;2022-07-29T02:57:28;4.35;;;3.95;;
56373;SDS011;58212;47.034;7.376;2022-07-29T03:00:01;5.05;;;4.10;;
56373;SDS011;58212;47.034;7.376;2022-07-29T03:02:35;5.13;;;4.15;;
56373;SDS011;58212;47.034;7.376;2022-07-29T03:05:08;5.10;;;4.30;;
56373;SDS011;58212;47.034;7.376;2022-07-29T03:07:39;5.60;;;4.82;;
56373;SDS011;58212;47.034;7.376;2022-07-29T03:10:09;6.25;;;4.22;;
56373;SDS011;58212;47.034;7.376;2022-07-29T03:12:37;5.57;;;4.72;;
56373;SDS011;58212;47.034;7.376;2022-07-29T03:15:05;5.95;;;4.60;;
56373;SDS011;58212;47.034;7.376;2022-07-29T03:17:35;5.88;;;4.40;;
56373;SDS011;58212;47.034;7.376;2022-07-29T03:20:03;4.97;;;4.50;;
56373;SDS011;58212;47.034;7.376;2022-07-29T03:22:31;5.55;;;4.68;;
56373;SDS011;58212;47.034;7.376;2022-07-29T03:25:03;8.18;;;4.43;;
56373;SDS011;58212;47.034;7.376;2022-07-29T03:27:34;5.38;;;4.50;;
56373;SDS011;58212;47.034;7.376;2022-07-29T03:30:01;7.10;;;4.32;;
56373;SDS011;58212;47.034;7.376;2022-07-29T03:32:28;4.95;;;4.53;;
56373;SDS011;58212;47.034;7.376;2022-07-29T03:34:57;6.97;;;4.45;;
56373;SDS011;58212;47.034;7.376;2022-07-29T03:37:24;5.82;;;4.38;;
56373;SDS011;58212;47.034;7.376;2022-07-29T03:39:51;4.38;;;3.97;;
56373;SDS011;58212;47.034;7.376;2022-07-29T03:42:21;5.32;;;4.60;;
56373;SDS011;58212;47.034;7.376;2022-07-29T03:44:50;5.57;;;4.22;;
56373;SDS011;58212;47.034;7.376;2022-07-29T03:47:22;5.30;;;4.80;;
56373;SDS011;58212;47.034;7.376;2022-07-29T03:49:52;5.80;;;4.55;;
56373;SDS011;58212;47.034;7.376;2022-07-29T03:52:23;4.20;;;3.72;;
56373;SDS011;58212;47.034;7.376;2022-07-29T03:54:50;4.85;;;4.32;;
56373;SDS011;58212;47.034;7.376;2022-07-29T03:57:18;5.50;;;4.72;;
56373;SDS011;58212;47.034;7.376;2022-07-29T03:59:50;7.68;;;4.18;;
56373;SDS011;58212;47.034;7.376;2022-07-29T04:02:18;4.80;;;4.40;;
56373;SDS011;58212;47.034;7.376;2022-07-29T04:04:46;4.90;;;4.50;;
56373;SDS011;58212;47.034;7.376;2022-07-29T04:07:14;5.28;;;4.32;;
56373;SDS011;58212;47.034;7.376;2022-07-29T04:09:43;4.93;;;3.75;;
56373;SDS011;58212;47.034;7.376;2022-07-29T04:12:10;4.80;;;4.38;;
56373;SDS011;58212;47.034;7.376;2022-07-29T04:14:37;4.38;;;4.00;;
56373;SDS011;58212;47.034;7.376;2022-07-29T04:17:04;4.03;;;3.70;;
56373;SDS011;58212;47.034;7.376;2022-07-29T04:19:31;4.93;;;4.50;;
56373;SDS011;58212;47.034;7.376;2022-07-29T04:21:59;4.05;;;3.70;;
56373;SDS011;58212;47.034;7.376;2022-07-29T04:24:27;4.32;;;4.03;;
56373;SDS011;58212;47.034;7.376;2022-07-29T04:26:55;4.07;;;3.78;;
56373;SDS011;58212;47.034;7.376;2022-07-29T04:29:22;4.63;;;3.95;;
56373;SDS011;58212;47.034;7.376;2022-07-29T04:31:49;4.38;;;3.90;;
56373;SDS011;58212;47.034;7.376;2022-07-29T04:34:16;6.78;;;4.25;;
56373;SDS011;58212;47.034;7.376;2022-07-29T04:36:43;5.03;;;4.50;;
56373;SDS011;58212;47.034;7.376;2022-07-29T04:39:10;4.60;;;4.20;;
56373;SDS011;58212;47.034;7.376;2022-07-29T04:41:38;4.45;;;4.15;;
56373;SDS011;58212;47.034;7.376;2022-07-29T04:44:06;4.57;;;4.18;;
56373;SDS011;58212;47.034;7.376;2022-07-29T04:46:33;5.55;;;4.63;;
56373;SDS011;58212;47.034;7.376;2022-07-29T04:49:01;4.30;;;4.00;;
56373;SDS011;58212;47.034;7.376;2022-07-29T04:51:29;4.32;;;3.92;;
56373;SDS011;58212;47.034;7.376;2022-07-29T04:53:56;4.32;;;3.55;;
56373;SDS011;58212;47.034;7.376;2022-07-29T04:56:23;4.30;;;3.90;;
56373;SDS011;58212;47.034;7.376;2022-07-29T04:58:52;4.88;;;4.38;;
56373;SDS011;58212;47.034;7.376;2022-07-29T05:01:20;4.47;;;4.00;;
56373;SDS011;58212;47.034;7.376;2022-07-29T05:03:50;4.25;;;3.78;;
56373;SDS011;58212;47.034;7.376;2022-07-29T05:06:19;4.70;;;4.35;;
56373;SDS011;58212;47.034;7.376;2022-07-29T05:08:46;6.47;;;4.05;;
56373;SDS011;58212;47.034;7.376;2022-07-29T05:11:13;3.90;;;3.60;;
56373;SDS011;58212;47.034;7.376;2022-07-29T05:13:40;4.00;;;3.70;;
56373;SDS011;58212;47.034;7.376;2022-07-29T05:16:07;4.40;;;4.10;;
56373;SDS011;58212;47.034;7.376;2022-07-29T05:18:36;4.93;;;4.13;;
56373;SDS011;58212;47.034;7.376;2022-07-29T05:21:03;4.90;;;4.22;;
56373;SDS011;58212;47.034;7.376;2022-07-29T05:23:30;3.50;;;3.20;;
56373;SDS011;58212;47.034;7.376;2022-07-29T05:25:59;4.20;;;3.80;;
56373;SDS011;58212;47.034;7.376;2022-07-29T05:28:26;4.38;;;3.97;;
56373;SDS011;58212;47.034;7.376;2022-07-29T05:30:53;3.95;;;3.47;;
56373;SDS011;58212;47.034;7.376;2022-07-29T05:33:21;5.07;;;3.95;;
56373;SDS011;58212;47.034;7.376;2022-07-29T05:35:49;4.80;;;4.10;;
56373;SDS011;58212;47.034;7.376;2022-07-29T05:38:16;7.35;;;4.70;;
56373;SDS011;58212;47.034;7.376;2022-07-29T05:40:43;4.85;;;4.43;;
56373;SDS011;58212;47.034;7.376;2022-07-29T05:43:10;6.13;;;5.20;;
56373;SDS011;58212;47.034;7.376;2022-07-29T05:45:38;5.75;;;5.00;;
56373;SDS011;58212;47.034;7.376;2022-07-29T05:48:05;5.07;;;4.47;;
56373;SDS011;58212;47.034;7.376;2022-07-29T05:50:32;4.35;;;4.05;;
56373;SDS011;58212;47.034;7.376;2022-07-29T05:53:01;6.18;;;4.40;;
56373;SDS011;58212;47.034;7.376;2022-07-29T05:55:28;4.68;;;4.28;;
56373;SDS011;58212;47.034;7.376;2022-07-29T05:57:56;4.45;;;4.05;;
56373;SDS011;58212;47.034;7.376;2022-07-29T06:00:23;5.57;;;4.40;;
56373;SDS011;58212;47.034;7.376;2022-07-29T06:02:50;5.50;;;4.43;;
56373;SDS011;58212;47.034;7.376;2022-07-29T06:05:17;4.70;;;4.30;;
56373;SDS011;58212;47.034;7.376;2022-07-29T06:07:44;5.63;;;4.45;;
56373;SDS011;58212;47.034;7.376;2022-07-29T06:10:13;4.07;;;3.72;;
56373;SDS011;58212;47.034;7.376;2022-07-29T06:12:42;4.55;;;4.18;;
56373;SDS011;58212;47.034;7.376;2022-07-29T06:15:12;5.05;;;4.50;;
56373;SDS011;58212;47.034;7.376;2022-07-29T06:17:39;4.63;;;4.18;;
56373;SDS011;58212;47.034;7.376;2022-07-29T06:20:06;5.55;;;4.60;;
56373;SDS011;58212;47.034;7.376;2022-07-29T06:22:34;4.60;;;4.20;;
56373;SDS011;58212;47.034;7.376;2022-07-29T06:25:01;4.53;;;4.13;;
56373;SDS011;58212;47.034;7.376;2022-07-29T06:27:30;4.90;;;4.50;;
56373;SDS011;58212;47.034;7.376;2022-07-29T06:29:57;4.70;;;4.22;;
56373;SDS011;58212;47.034;7.376;2022-07-29T06:32:24;4.75;;;4.35;;
56373;SDS011;58212;47.034;7.376;2022-07-29T06:34:51;4.88;;;4.38;;
56373;SDS011;58212;47.034;7.376;2022-07-29T06:37:18;5.10;;;4.60;;
56373;SDS011;58212;47.034;7.376;2022-07-29T06:39:45;7.03;;;4.75;;
56373;SDS011;58212;47.034;7.376;2022-07-29T06:42:12;4.95;;;4.50;;
56373;SDS011;58212;47.034;7.376;2022-07-29T06:44:41;4.78;;;4.38;;
56373;SDS011;58212;47.034;7.376;2022-07-29T06:47:08;4.30;;;3.95;;
56373;SDS011;58212;47.034;7.376;2022-07-29T06:49:35;5.53;;;4.53;;
56373;SDS011;58212;47.034;7.376;2022-07-29T06:52:04;4.63;;;4.20;;
56373;SDS011;58212;47.034;7.376;2022-07-29T06:54:31;5.57;;;5.03;;
56373;SDS011;58212;47.034;7.376;2022-07-29T06:56:58;4.88;;;3.90;;
56373;SDS011;58212;47.034;7.376;2022-07-29T06:59:26;4.85;;;4.15;;
56373;SDS011;58212;47.034;7.376;2022-07-29T07:01:54;5.40;;;4.68;;
56373;SDS011;58212;47.034;7.376;2022-07-29T07:04:21;5.22;;;4.38;;
56373;SDS011;58212;47.034;7.376;2022-07-29T07:06:50;5.70;;;4.35;;
56373;SDS011;58212;47.034;7.376;2022-07-29T07:09:17;4.68;;;4.28;;
56373;SDS011;58212;47.034;7.376;2022-07-29T07:11:47;5.05;;;4.65;;
56373;SDS011;58212;47.034;7.376;2022-07-29T07:14:14;5.10;;;4.55;;
56373;SDS011;58212;47.034;7.376;2022-07-29T07:16:41;6.45;;;4.88;;
56373;SDS011;58212;47.034;7.376;2022-07-29T07:19:10;4.57;;;4.28;;
56373;SDS011;58212;47.034;7.376;2022-07-29T07:21:39;3.97;;;3.65;;
56373;SDS011;58212;47.034;7.376;2022-07-29T07:24:06;4.40;;;4.10;;
56373;SDS011;58212;47.034;7.376;2022-07-29T07:26:33;5.03;;;4.53;;
56373;SDS011;58212;47.034;7.376;2022-07-29T07:29:00;4.90;;;4.50;;
56373;SDS011;58212;47.034;7.376;2022-07-29T07:31:27;4.78;;;4.25;;
56373;SDS011;58212;47.034;7.376;2022-07-29T07:33:54;5.68;;;4.55;;
56373;SDS011;58212;47.034;7.376;2022-07-29T07:36:22;6.25;;;4.88;;
56373;SDS011;58212;47.034;7.376;2022-07-29T07:38:49;7.50;;;4.80;;
56373;SDS011;58212;47.034;7.376;2022-07-29T07:41:16;6.40;;;5.40;;
56373;SDS011;58212;47.034;7.376;2022-07-29T07:43:43;5.63;;;5.15;;
56373;SDS011;58212;47.034;7.376;2022-07-29T07:46:11;5.88;;;5.32;;
56373;SDS011;58212;47.034;7.376;2022-07-29T07:48:37;6.72;;;5.20;;
56373;SDS011;58212;47.034;7.376;2022-07-29T07:51:04;5.15;;;4.75;;
56373;SDS011;58212;47.034;7.376;2022-07-29T07:53:36;5.78;;;5.35;;
56373;SDS011;58212;47.034;7.376;2022-07-29T07:56:03;5.28;;;4.78;;
56373;SDS011;58212;47.034;7.376;2022-07-29T07:58:31;5.32;;;4.63;;
56373;SDS011;58212;47.034;7.376;2022-07-29T08:01:02;5.45;;;4.93;;
56373;SDS011;58212;47.034;7.376;2022-07-29T08:03:29;5.05;;;4.65;;
56373;SDS011;58212;47.034;7.376;2022-07-29T08:05:56;7.72;;;6.93;;
56373;SDS011;58212;47.034;7.376;2022-07-29T08:08:28;5.47;;;5.07;;
56373;SDS011;58212;47.034;7.376;2022-07-29T08:10:56;5.40;;;4.97;;
56373;SDS011;58212;47.034;7.376;2022-07-29T08:13:24;5.45;;;4.82;;
56373;SDS011;58212;47.034;7.376;2022-07-29T08:15:55;5.45;;;4.53;;
56373;SDS011;58212;47.034;7.376;2022-07-29T08:18:27;4.78;;;4.13;;
56373;SDS011;58212;47.034;7.376;2022-07-29T08:20:58;5.50;;;4.97;;
56373;SDS011;58212;47.034;7.376;2022-07-29T08:23:25;7.30;;;5.35;;
56373;SDS011;58212;47.034;7.376;2022-07-29T08:26:01;6.07;;;4.75;;
56373;SDS011;58212;47.034;7.376;2022-07-29T08:28:28;5.13;;;4.63;;
56373;SDS011;58212;47.034;7.376;2022-07-29T08:30:55;5.82;;;5.28;;
56373;SDS011;58212;47.034;7.376;2022-07-29T08:33:22;6.00;;;5.40;;
56373;SDS011;58212;47.034;7.376;2022-07-29T08:35:49;6.30;;;5.72;;
56373;SDS011;58212;47.034;7.376;2022-07-29T08:38:16;5.30;;;4.82;;
56373;SDS011;58212;47.034;7.376;2022-07-29T08:40:43;6.30;;;5.70;;
56373;SDS011;58212;47.034;7.376;2022-07-29T08:43:12;6.40;;;5.40;;
56373;SDS011;58212;47.034;7.376;2022-07-29T08:45:41;6.20;;;5.60;;
56373;SDS011;58212;47.034;7.376;2022-07-29T08:48:11;6.45;;;5.95;;
56373;SDS011;58212;47.034;7.376;2022-07-29T08:50:38;5.97;;;5.47;;
56373;SDS011;58212;47.034;7.376;2022-07-29T08:53:06;6.43;;;6.03;;
56373;SDS011;58212;47.034;7.376;2022-07-29T08:55:37;6.28;;;5.53;;
56373;SDS011;58212;47.034;7.376;2022-07-29T08:58:06;6.50;;;6.00;;
56373;SDS011;58212;47.034;7.376;2022-07-29T09:00:35;7.90;;;5.70;;
56373;SDS011;58212;47.034;7.376;2022-07-29T09:03:03;4.90;;;4.50;;
56373;SDS011;58212;47.034;7.376;2022-07-29T09:05:33;5.15;;;4.75;;
56373;SDS011;58212;47.034;7.376;2022-07-29T09:08:01;5.18;;;4.78;;
56373;SDS011;58212;47.034;7.376;2022-07-29T09:10:30;4.90;;;4.53;;
56373;SDS011;58212;47.034;7.376;2022-07-29T09:13:00;4.50;;;4.10;;
56373;SDS011;58212;47.034;7.376;2022-07-29T09:15:28;8.82;;;7.95;;
56373;SDS011;58212;47.034;7.376;2022-07-29T09:17:56;6.20;;;4.43;;
56373;SDS011;58212;47.034;7.376;2022-07-29T09:20:25;4.90;;;4.40;;
56373;SDS011;58212;47.034;7.376;2022-07-29T09:23:14;4.40;;;4.00;;
56373;SDS011;58212;47.034;7.376;2022-07-29T09:25:41;4.78;;;4.38;;
56373;SDS011;58212;47.034;7.376;2022-07-29T09:28:09;4.53;;;4.22;;
56373;SDS011;58212;47.034;7.376;2022-07-29T09:30:39;5.63;;;4.80;;
56373;SDS011;58212;47.034;7.376;2022-07-29T09:33:18;3.90;;;3.60;;
56373;SDS011;58212;47.034;7.376;2022-07-29T09:35:46;4.20;;;3.50;;
56373;SDS011;58212;47.034;7.376;2022-07-29T09:38:25;4.57;;;4.18;;
56373;SDS011;58212;47.034;7.376;2022-07-29T09:40:55;4.53;;;4.13;;
56373;SDS011;58212;47.034;7.376;2022-07-29T09:43:23;4.82;;;4.28;;
56373;SDS011;58212;47.034;7.376;2022-07-29T09:45:50;4.43;;;4.07;;
56373;SDS011;58212;47.034;7.376;2022-07-29T09:48:20;4.13;;;3.72;;
56373;SDS011;58212;47.034;7.376;2022-07-29T09:50:48;4.35;;;3.90;;
56373;SDS011;58212;47.034;7.376;2022-07-29T09:53:29;4.35;;;3.50;;
56373;SDS011;58212;47.034;7.376;2022-07-29T09:55:57;4.10;;;3.58;;
56373;SDS011;58212;47.034;7.376;2022-07-29T09:58:24;5.03;;;3.97;;
56373;SDS011;58212;47.034;7.376;2022-07-29T10:00:52;4.28;;;3.88;;
56373;SDS011;58212;47.034;7.376;2022-07-29T10:03:23;4.47;;;4.07;;
56373;SDS011;58212;47.034;7.376;2022-07-29T10:06:06;6.25;;;4.30;;
56373;SDS011;58212;47.034;7.376;2022-07-29T10:08:34;4.53;;;3.92;;
56373;SDS011;58212;47.034;7.376;2022-07-29T10:11:11;3.85;;;3.38;;
56373;SDS011;58212;47.034;7.376;2022-07-29T10:13:39;4.57;;;4.18;;
56373;SDS011;58212;47.034;7.376;2022-07-29T10:16:07;5.50;;;3.97;;
56373;SDS011;58212;47.034;7.376;2022-07-29T10:18:36;5.50;;;4.57;;
56373;SDS011;58212;47.034;7.376;2022-07-29T10:21:04;5.53;;;4.20;;
56373;SDS011;58212;47.034;7.376;2022-07-29T10:23:32;4.95;;;4.55;;
56373;SDS011;58212;47.034;7.376;2022-07-29T10:26:03;4.60;;;4.07;;
56373;SDS011;58212;47.034;7.376;2022-07-29T10:28:30;6.15;;;4.20;;
56373;SDS011;58212;47.034;7.376;2022-07-29T10:30:59;9.10;;;4.90;;
56373;SDS011;58212;47.034;7.376;2022-07-29T10:33:34;5.00;;;3.70;;
56373;SDS011;58212;47.034;7.376;2022-07-29T10:36:17;5.20;;;4.80;;
56373;SDS011;58212;47.034;7.376;2022-07-29T10:38:55;6.07;;;3.97;;
56373;SDS011;58212;47.034;7.376;2022-07-29T10:44:28;5.60;;;5.10;;
56373;SDS011;58212;47.034;7.376;2022-07-29T10:46:55;5.10;;;4.40;;
56373;SDS011;58212;47.034;7.376;2022-07-29T10:49:24;5.20;;;4.20;;
56373;SDS011;58212;47.034;7.376;2022-07-29T10:52:02;6.75;;;4.65;;
56373;SDS011;58212;47.034;7.376;2022-07-29T10:57:25;5.55;;;5.05;;
56373;SDS011;58212;47.034;7.376;2022-07-29T11:02:53;3.97;;;3.67;;
56373;SDS011;58212;47.034;7.376;2022-07-29T11:08:23;4.30;;;3.90;;
56373;SDS011;58212;47.034;7.376;2022-07-29T11:10:51;4.18;;;3.78;;
56373;SDS011;58212;47.034;7.376;2022-07-29T11:16:12;6.15;;;4.18;;
56373;SDS011;58212;47.034;7.376;2022-07-29T11:21:46;4.07;;;3.75;;
56373;SDS011;58212;47.034;7.376;2022-07-29T11:24:15;5.70;;;3.92;;
56373;SDS011;58212;47.034;7.376;2022-07-29T11:26:43;4.88;;;4.47;;
56373;SDS011;58212;47.034;7.376;2022-07-29T11:29:17;6.00;;;5.45;;
56373;SDS011;58212;47.034;7.376;2022-07-29T11:31:48;5.15;;;4.50;;
56373;SDS011;58212;47.034;7.376;2022-07-29T11:34:20;4.82;;;4.30;;
56373;SDS011;58212;47.034;7.376;2022-07-29T11:42:39;5.40;;;3.92;;
56373;SDS011;58212;47.034;7.376;2022-07-29T11:45:11;5.70;;;5.10;;
56373;SDS011;58212;47.034;7.376;2022-07-29T11:47:40;7.10;;;4.07;;
56373;SDS011;58212;47.034;7.376;2022-07-29T11:50:13;5.15;;;4.00;;
56373;SDS011;58212;47.034;7.376;2022-07-29T11:52:43;4.25;;;3.85;;
56373;SDS011;58212;47.034;7.376;2022-07-29T11:55:12;5.53;;;3.70;;
56373;SDS011;58212;47.034;7.376;2022-07-29T11:57:46;4.15;;;3.72;;
56373;SDS011;58212;47.034;7.376;2022-07-29T12:00:24;4.00;;;3.60;;
56373;SDS011;58212;47.034;7.376;2022-07-29T12:02:54;4.10;;;3.60;;
56373;SDS011;58212;47.034;7.376;2022-07-29T12:05:30;4.53;;;4.07;;
56373;SDS011;58212;47.034;7.376;2022-07-29T12:08:07;4.90;;;3.92;;
56373;SDS011;58212;47.034;7.376;2022-07-29T12:10:37;3.85;;;3.55;;
56373;SDS011;58212;47.034;7.376;2022-07-29T12:13:04;3.88;;;3.58;;
56373;SDS011;58212;47.034;7.376;2022-07-29T12:15:32;4.32;;;3.80;;
56373;SDS011;58212;47.034;7.376;2022-07-29T12:18:08;4.40;;;3.75;;
56373;SDS011;58212;47.034;7.376;2022-07-29T12:20:36;5.10;;;4.60;;
56373;SDS011;58212;47.034;7.376;2022-07-29T12:23:08;6.13;;;5.10;;
56373;SDS011;58212;47.034;7.376;2022-07-29T12:25:37;4.30;;;4.00;;
56373;SDS011;58212;47.034;7.376;2022-07-29T12:28:06;4.75;;;4.07;;
56373;SDS011;58212;47.034;7.376;2022-07-29T12:30:41;5.13;;;4.72;;
56373;SDS011;58212;47.034;7.376;2022-07-29T12:33:10;5.05;;;4.53;;
56373;SDS011;58212;47.034;7.376;2022-07-29T12:35:39;5.50;;;5.00;;
56373;SDS011;58212;47.034;7.376;2022-07-29T12:38:10;5.38;;;4.97;;
56373;SDS011;58212;47.034;7.376;2022-07-29T12:40:38;5.10;;;4.60;;
56373;SDS011;58212;47.034;7.376;2022-07-29T12:43:06;5.43;;;4.25;;
56373;SDS011;58212;47.034;7.376;2022-07-29T12:45:41;4.22;;;3.92;;
56373;SDS011;58212;47.034;7.376;2022-07-29T12:48:09;4.40;;;3.53;;
56373;SDS011;58212;47.034;7.376;2022-07-29T12:50:52;4.93;;;4.60;;
56373;SDS011;58212;47.034;7.376;2022-07-29T12:53:30;4.90;;;4.22;;
56373;SDS011;58212;47.034;7.376;2022-07-29T12:55:58;3.50;;;3.20;;
56373;SDS011;58212;47.034;7.376;2022-07-29T12:58:30;3.35;;;3.05;;
56373;SDS011;58212;47.034;7.376;2022-07-29T13:01:01;3.45;;;3.22;;
56373;SDS011;58212;47.034;7.376;2022-07-29T13:03:49;3.47;;;3.28;;
56373;SDS011;58212;47.034;7.376;2022-07-29T13:06:26;3.80;;;3.28;;
56373;SDS011;58212;47.034;7.376;2022-07-29T13:09:02;3.85;;;3.10;;
56373;SDS011;58212;47.034;7.376;2022-07-29T13:11:31;4.05;;;3.58;;
56373;SDS011;58212;47.034;7.376;2022-07-29T13:13:58;3.63;;;3.33;;
56373;SDS011;58212;47.034;7.376;2022-07-29T13:16:25;3.97;;;3.63;;
56373;SDS011;58212;47.034;7.376;2022-07-29T13:19:05;4.70;;;3.63;;
56373;SDS011;58212;47.034;7.376;2022-07-29T13:21:35;4.22;;;3.83;;
56373;SDS011;58212;47.034;7.376;2022-07-29T13:24:06;8.60;;;7.70;;
56373;SDS011;58212;47.034;7.376;2022-07-29T13:26:34;7.00;;;6.22;;
56373;SDS011;58212;47.034;7.376;2022-07-29T13:29:06;6.47;;;5.88;;
56373;SDS011;58212;47.034;7.376;2022-07-29T13:31:33;8.02;;;7.28;;
56373;SDS011;58212;47.034;7.376;2022-07-29T13:34:01;7.00;;;6.32;;
56373;SDS011;58212;47.034;7.376;2022-07-29T13:36:28;7.20;;;6.55;;
56373;SDS011;58212;47.034;7.376;2022-07-29T13:38:56;7.43;;;5.93;;
56373;SDS011;58212;47.034;7.376;2022-07-29T13:41:24;5.10;;;4.47;;
56373;SDS011;58212;47.034;7.376;2022-07-29T13:43:54;4.65;;;4.25;;
56373;SDS011;58212;47.034;7.376;2022-07-29T13:46:21;4.13;;;3.80;;
56373;SDS011;58212;47.034;7.376;2022-07-29T13:48:48;4.22;;;3.92;;
56373;SDS011;58212;47.034;7.376;2022-07-29T13:51:18;3.67;;;3.40;;
56373;SDS011;58212;47.034;7.376;2022-07-29T13:53:47;3.40;;;3.10;;
56373;SDS011;58212;47.034;7.376;2022-07-29T13:56:14;4.43;;;3.00;;
56373;SDS011;58212;47.034;7.376;2022-07-29T13:58:42;3.65;;;3.38;;
56373;SDS011;58212;47.034;7.376;2022-07-29T14:01:10;3.92;;;3.42;;
56373;SDS011;58212;47.034;7.376;2022-07-29T14:03:37;3.95;;;3.05;;
56373;SDS011;58212;47.034;7.376;2022-07-29T14:06:06;5.93;;;5.32;;
56373;SDS011;58212;47.034;7.376;2022-07-29T14:08:35;5.18;;;4.70;;
56373;SDS011;58212;47.034;7.376;2022-07-29T14:11:05;4.47;;;4.10;;
56373;SDS011;58212;47.034;7.376;2022-07-29T14:13:32;4.80;;;3.85;;
56373;SDS011;58212;47.034;7.376;2022-07-29T14:16:00;4.20;;;3.83;;
56373;SDS011;58212;47.034;7.376;2022-07-29T14:18:27;4.18;;;3.70;;
56373;SDS011;58212;47.034;7.376;2022-07-29T14:20:54;4.78;;;4.38;;
56373;SDS011;58212;47.034;7.376;2022-07-29T14:23:21;4.00;;;3.70;;
56373;SDS011;58212;47.034;7.376;2022-07-29T14:25:49;3.75;;;3.45;;
56373;SDS011;58212;47.034;7.376;2022-07-29T14:28:16;3.67;;;3.30;;
56373;SDS011;58212;47.034;7.376;2022-07-29T14:30:43;4.55;;;3.60;;
56373;SDS011;58212;47.034;7.376;2022-07-29T14:33:12;4.18;;;3.78;;
56373;SDS011;58212;47.034;7.376;2022-07-29T14:35:39;3.85;;;3.55;;
56373;SDS011;58212;47.034;7.376;2022-07-29T14:38:06;4.15;;;3.58;;
56373;SDS011;58212;47.034;7.376;2022-07-29T14:40:33;4.32;;;3.92;;
56373;SDS011;58212;47.034;7.376;2022-07-29T14:43:01;6.43;;;5.80;;
56373;SDS011;58212;47.034;7.376;2022-07-29T14:45:28;4.60;;;4.18;;
56373;SDS011;58212;47.034;7.376;2022-07-29T14:47:56;5.22;;;4.72;;
56373;SDS011;58212;47.034;7.376;2022-07-29T14:50:28;4.75;;;4.32;;
56373;SDS011;58212;47.034;7.376;2022-07-29T14:52:55;4.50;;;4.20;;
56373;SDS011;58212;47.034;7.376;2022-07-29T14:55:22;4.45;;;4.05;;
56373;SDS011;58212;47.034;7.376;2022-07-29T14:57:49;4.65;;;4.25;;
56373;SDS011;58212;47.034;7.376;2022-07-29T15:00:16;5.05;;;4.65;;
56373;SDS011;58212;47.034;7.376;2022-07-29T15:02:43;4.30;;;3.90;;
56373;SDS011;58212;47.034;7.376;2022-07-29T15:05:10;4.60;;;4.00;;
56373;SDS011;58212;47.034;7.376;2022-07-29T15:07:39;5.55;;;5.05;;
56373;SDS011;58212;47.034;7.376;2022-07-29T15:10:06;5.30;;;4.70;;
56373;SDS011;58212;47.034;7.376;2022-07-29T15:12:33;5.82;;;5.30;;
56373;SDS011;58212;47.034;7.376;2022-07-29T15:15:03;5.65;;;5.15;;
56373;SDS011;58212;47.034;7.376;2022-07-29T15:17:32;5.60;;;5.10;;
56373;SDS011;58212;47.034;7.376;2022-07-29T15:19:59;5.22;;;4.72;;
56373;SDS011;58212;47.034;7.376;2022-07-29T15:22:26;4.93;;;4.38;;
56373;SDS011;58212;47.034;7.376;2022-07-29T15:24:55;4.38;;;3.95;;